Terminal Aerodrome Forecast
Issued by NWS

Home | Current Version | Previous Version | Text Only | Print | Product List | Glossary On
Versions: 1 2 3 4 5 6 7 8 9 10 11 12 13 14 15 16 17 18
000
FTUS43 KMQT 251302 AAA
TAFIWD
TAF AMD
KIWD 251302Z 2513/2612 28003KT P6SM OVC008
     FM251600 30003KT 4SM BR VCSH OVC008
     FM251800 34003KT 5SM -SHRA BR OVC010
     FM251900 32003KT 5SM -SHRA BR OVC008
     FM260200 30006KT 3SM BR VCSH OVC003
     FM260600 30005KT 5SM BR OVC003=

USA.gov is the U.S. government's official web portal to all federal, state and local government web resources and services.